Time,TemperatureF,DewpointF,PressureIn,WindDirection,WindDirectionDegrees,WindSpeedMPH,WindSpeedGustMPH,Humidity,HourlyPrecipIn,Conditions,Clouds,dailyrainin,SoftwareType,DateUTC
2013-03-17 00:12:00,49.2,18.0,29.60,SSW,209,13.0,17.0,29,0.00,,,0.00,weatherlink.com 1.10,2013-03-17 06:12:00,
2013-03-17 00:27:00,50.9,17.0,29.58,SSW,200,17.0,25.0,26,0.00,,,0.00,weatherlink.com 1.10,2013-03-17 06:27:00,
2013-03-17 00:42:00,50.7,17.0,29.57,SSW,199,11.0,27.0,26,0.00,,,0.00,weatherlink.com 1.10,2013-03-17 06:42:00,
2013-03-17 00:57:00,49.1,17.0,29.56,SSE,157,10.0,15.0,28,0.00,,,0.00,weatherlink.com 1.10,2013-03-17 06:57:00,
2013-03-17 01:12:00,49.9,16.0,29.55,SSE,158,14.0,19.0,26,0.00,,,0.00,weatherlink.com 1.10,2013-03-17 07:12:00,
2013-03-17 01:27:00,50.0,18.0,29.54,SE,146,11.0,27.0,28,0.00,,,0.00,weatherlink.com 1.10,2013-03-17 07:27:00,
2013-03-17 01:43:00,48.5,22.0,29.54,WSW,240,8.0,24.0,35,0.00,,,0.00,weatherlink.com 1.10,2013-03-17 07:43:00,
2013-03-17 01:58:00,47.9,21.0,29.52,West,260,7.0,17.0,35,0.00,,,0.00,weatherlink.com 1.10,2013-03-17 07:58:00,
2013-03-17 02:13:00,47.9,19.0,29.52,SSE,150,4.0,9.0,32,0.00,,,0.00,weatherlink.com 1.10,2013-03-17 08:13:00,
2013-03-17 02:28:00,46.4,21.0,29.52,SSE,161,4.0,10.0,36,0.00,,,0.00,weatherlink.com 1.10,2013-03-17 08:28:00,
2013-03-17 02:43:00,46.7,23.0,29.52,South,185,11.0,18.0,39,0.00,,,0.00,weatherlink.com 1.10,2013-03-17 08:43:00,
2013-03-17 02:58:00,46.6,23.0,29.50,South,182,20.0,24.0,40,0.00,,,0.00,weatherlink.com 1.10,2013-03-17 08:58:00,
2013-03-17 03:28:00,45.9,25.0,29.47,South,190,17.0,28.0,45,0.00,,,0.00,weatherlink.com 1.10,2013-03-17 09:28:00,
2013-03-17 03:43:00,45.9,26.0,29.46,South,174,22.0,29.0,46,0.00,,,0.00,weatherlink.com 1.10,2013-03-17 09:43:00,
2013-03-17 03:58:00,45.8,25.0,29.44,SSE,148,20.0,29.0,45,0.00,,,0.00,weatherlink.com 1.10,2013-03-17 09:58:00,
2013-03-17 04:13:00,45.2,26.0,29.43,SSE,155,18.0,26.0,48,0.00,,,0.00,weatherlink.com 1.10,2013-03-17 10:13:00,
2013-03-17 04:28:00,45.2,27.0,29.42,SE,138,12.0,27.0,49,0.00,,,0.00,weatherlink.com 1.10,2013-03-17 10:28:00,
2013-03-17 04:43:00,45.4,26.0,29.41,SE,146,7.0,23.0,47,0.00,,,0.00,weatherlink.com 1.10,2013-03-17 10:43:00,
2013-03-17 04:58:00,46.5,26.0,29.42,West,264,10.0,17.0,45,0.00,,,0.00,weatherlink.com 1.10,2013-03-17 10:58:00,
2013-03-17 05:13:00,46.3,27.0,29.40,West,278,9.0,18.0,47,0.00,,,0.00,weatherlink.com 1.10,2013-03-17 11:13:00,
2013-03-17 05:28:00,45.7,27.0,29.41,WNW,296,16.0,18.0,49,0.00,,,0.00,weatherlink.com 1.10,2013-03-17 11:28:00,
2013-03-17 05:43:00,45.7,26.0,29.41,WNW,287,3.0,16.0,47,0.00,,,0.00,weatherlink.com 1.10,2013-03-17 11:43:00,
2013-03-17 05:58:00,44.7,28.0,29.41,WNW,286,15.0,18.0,52,0.00,,,0.00,weatherlink.com 1.10,2013-03-17 11:58:00,
2013-03-17 06:13:00,44.2,27.0,29.42,West,262,22.0,29.0,52,0.00,,,0.00,weatherlink.com 1.10,2013-03-17 12:13:00,
2013-03-17 06:28:00,40.6,30.0,29.45,West,271,18.0,35.0,67,0.00,,,0.00,weatherlink.com 1.10,2013-03-17 12:28:00,
2013-03-17 06:43:00,40.4,31.0,29.43,SW,231,8.0,22.0,68,0.00,,,0.00,weatherlink.com 1.10,2013-03-17 12:43:00,
2013-03-17 06:58:00,40.5,31.0,29.44,WNW,290,19.0,26.0,68,0.00,,,0.00,weatherlink.com 1.10,2013-03-17 12:58:00,
2013-03-17 07:13:00,39.6,31.0,29.43,WNW,298,16.0,19.0,70,0.00,,,0.00,weatherlink.com 1.10,2013-03-17 13:13:00,
2013-03-17 07:28:00,38.3,31.0,29.43,NW,314,14.0,15.0,76,0.01,,,0.01,weatherlink.com 1.10,2013-03-17 13:28:00,
2013-03-17 07:43:00,39.7,29.0,29.42,NNW,348,15.0,28.0,67,0.01,,,0.01,weatherlink.com 1.10,2013-03-17 13:43:00,
2013-03-17 07:58:00,36.6,31.0,29.43,North,5,14.0,26.0,79,0.01,,,0.01,weatherlink.com 1.10,2013-03-17 13:58:00,
2013-03-17 08:29:00,33.9,31.0,29.43,NE,55,10.0,13.0,90,0.00,,,0.01,weatherlink.com 1.10,2013-03-17 14:29:00,
2013-03-17 08:44:00,34.4,32.0,29.43,NE,45,12.0,25.0,91,0.00,,,0.01,weatherlink.com 1.10,2013-03-17 14:44:00,
2013-03-17 08:59:00,34.4,32.0,29.45,NNE,16,15.0,30.0,90,0.00,,,0.01,weatherlink.com 1.10,2013-03-17 14:59:00,
2013-03-17 09:14:00,33.6,31.0,29.45,NE,34,18.0,23.0,90,0.00,,,0.01,weatherlink.com 1.10,2013-03-17 15:14:00,
2013-03-17 09:29:00,33.6,31.0,29.45,NE,41,13.0,20.0,91,0.00,,,0.01,weatherlink.com 1.10,2013-03-17 15:29:00,
2013-03-17 09:44:00,34.2,32.0,29.46,NE,37,10.0,18.0,91,0.00,,,0.01,weatherlink.com 1.10,2013-03-17 15:44:00,
2013-03-17 09:59:00,34.8,33.0,29.46,NE,44,4.0,10.0,91,0.00,,,0.01,weatherlink.com 1.10,2013-03-17 15:59:00,
2013-03-17 10:14:00,35.6,31.0,29.47,NE,44,14.0,19.0,84,0.00,,,0.01,weatherlink.com 1.10,2013-03-17 16:14:00,
2013-03-17 10:29:00,34.1,31.0,29.48,NE,43,11.0,16.0,87,0.00,,,0.01,weatherlink.com 1.10,2013-03-17 16:29:00,
2013-03-17 10:44:00,34.2,31.0,29.47,NNE,30,10.0,14.0,87,0.00,,,0.01,weatherlink.com 1.10,2013-03-17 16:44:00,
2013-03-17 10:59:00,33.9,31.0,29.48,NE,44,8.0,15.0,88,0.00,,,0.01,weatherlink.com 1.10,2013-03-17 16:59:00,
2013-03-17 11:14:00,34.3,32.0,29.48,NE,46,6.0,11.0,90,0.00,,,0.01,weatherlink.com 1.10,2013-03-17 17:14:00,
2013-03-17 11:29:00,34.5,32.0,29.47,NE,46,6.0,9.0,89,0.00,,,0.01,weatherlink.com 1.10,2013-03-17 17:29:00,
2013-03-17 11:44:00,36.6,31.0,29.47,NE,47,8.0,9.0,81,0.00,,,0.01,weatherlink.com 1.10,2013-03-17 17:44:00,
2013-03-17 11:59:00,37.1,28.0,29.48,NE,46,5.0,7.0,71,0.00,,,0.01,weatherlink.com 1.10,2013-03-17 17:59:00,
2013-03-17 12:14:00,36.7,29.0,29.49,NE,39,2.0,7.0,75,0.00,,,0.01,weatherlink.com 1.10,2013-03-17 18:14:00,
2013-03-17 12:29:00,35.9,31.0,29.50,SSE,165,11.0,19.0,83,0.00,,,0.01,weatherlink.com 1.10,2013-03-17 18:29:00,
2013-03-17 12:44:00,35.7,30.0,29.51,South,172,9.0,27.0,79,0.00,,,0.01,weatherlink.com 1.10,2013-03-17 18:44:00,
2013-03-17 12:59:00,36.9,27.0,29.52,SE,130,8.0,17.0,67,0.00,,,0.01,weatherlink.com 1.10,2013-03-17 18:59:00,
2013-03-17 13:14:00,38.9,14.0,29.53,WSW,250,13.0,15.0,37,0.00,,,0.01,weatherlink.com 1.10,2013-03-17 19:14:00,
2013-03-17 13:29:00,35.6,26.0,29.55,ESE,113,5.0,22.0,69,0.00,,,0.01,weatherlink.com 1.10,2013-03-17 19:29:00,
2013-03-17 13:44:00,36.8,27.0,29.57,ENE,57,10.0,14.0,68,0.00,,,0.01,weatherlink.com 1.10,2013-03-17 19:44:00,
2013-03-17 13:59:00,36.1,28.0,29.58,ENE,71,9.0,14.0,72,0.00,,,0.01,weatherlink.com 1.10,2013-03-17 19:59:00,
2013-03-17 14:14:00,36.9,28.0,29.58,East,94,13.0,16.0,69,0.00,,,0.01,weatherlink.com 1.10,2013-03-17 20:14:00,
2013-03-17 14:29:00,37.3,24.0,29.59,ENE,59,3.0,11.0,60,0.00,,,0.01,weatherlink.com 1.10,2013-03-17 20:29:00,
2013-03-17 14:44:00,38.1,17.0,29.60,NW,310,9.0,17.0,42,0.00,,,0.01,weatherlink.com 1.10,2013-03-17 20:44:00,
2013-03-17 14:59:00,38.6,8.0,29.60,West,261,11.0,23.0,28,0.00,,,0.01,weatherlink.com 1.10,2013-03-17 20:59:00,
2013-03-17 15:14:00,39.4,8.0,29.61,NW,321,3.0,14.0,27,0.00,,,0.01,weatherlink.com 1.10,2013-03-17 21:14:00,
2013-03-17 15:29:00,39.4,6.0,29.62,NW,311,10.0,16.0,25,0.00,,,0.01,weatherlink.com 1.10,2013-03-17 21:29:00,
2013-03-17 15:44:00,39.5,3.0,29.63,WNW,298,21.0,27.0,22,0.00,,,0.01,weatherlink.com 1.10,2013-03-17 21:44:00,
2013-03-17 15:59:00,35.4,12.0,29.65,West,278,18.0,34.0,38,0.00,,,0.01,weatherlink.com 1.10,2013-03-17 21:59:00,
2013-03-17 16:14:00,38.9,7.0,29.65,WNW,283,19.0,20.0,26,0.00,,,0.01,weatherlink.com 1.10,2013-03-17 22:14:00,
2013-03-17 16:29:00,38.7,3.0,29.66,NW,313,9.0,24.0,22,0.00,,,0.01,weatherlink.com 1.10,2013-03-17 22:29:00,
2013-03-17 16:44:00,38.6,5.0,29.68,WNW,292,13.0,17.0,25,0.00,,,0.01,weatherlink.com 1.10,2013-03-17 22:44:00,
2013-03-17 16:59:00,39.2,2.0,29.68,WNW,303,16.0,21.0,21,0.00,,,0.01,weatherlink.com 1.10,2013-03-17 22:59:00,
2013-03-17 17:14:00,39.1,3.0,29.68,WNW,288,9.0,20.0,22,0.00,,,0.01,weatherlink.com 1.10,2013-03-17 23:14:00,
2013-03-17 17:29:00,38.9,3.0,29.70,WNW,303,20.0,22.0,22,0.00,,,0.01,weatherlink.com 1.10,2013-03-17 23:29:00,
2013-03-17 17:44:00,38.9,3.0,29.71,NNW,336,8.0,15.0,22,0.00,,,0.01,weatherlink.com 1.10,2013-03-17 23:44:00,
2013-03-17 17:59:00,38.6,6.0,29.72,WNW,298,8.0,13.0,26,0.00,,,0.01,weatherlink.com 1.10,2013-03-17 23:59:00,
2013-03-17 18:15:00,37.3,6.0,29.72,WSW,249,9.0,14.0,27,0.00,,,0.01,weatherlink.com 1.10,2013-03-18 00:15:00,
2013-03-17 18:30:00,36.5,6.0,29.73,West,273,5.0,24.0,28,0.00,,,0.01,weatherlink.com 1.10,2013-03-18 00:30:00,
2013-03-17 18:45:00,35.8,10.0,29.75,WSW,245,12.0,12.0,34,0.00,,,0.01,weatherlink.com 1.10,2013-03-18 00:45:00,
2013-03-17 19:00:00,35.2,9.0,29.75,SW,219,10.0,12.0,33,0.00,,,0.01,weatherlink.com 1.10,2013-03-18 01:00:00,
2013-03-17 19:15:00,35.1,10.0,29.75,WSW,243,5.0,11.0,35,0.00,,,0.01,weatherlink.com 1.10,2013-03-18 01:15:00,
2013-03-17 19:30:00,35.0,10.0,29.76,SW,236,6.0,17.0,35,0.00,,,0.01,weatherlink.com 1.10,2013-03-18 01:30:00,
2013-03-17 19:45:00,35.6,8.0,29.77,WNW,286,13.0,14.0,31,0.00,,,0.01,weatherlink.com 1.10,2013-03-18 01:45:00,
2013-03-17 20:00:00,35.4,8.0,29.78,WSW,250,10.0,17.0,32,0.00,,,0.01,weatherlink.com 1.10,2013-03-18 02:00:00,
2013-03-17 20:15:00,34.9,9.0,29.78,WSW,247,10.0,14.0,34,0.00,,,0.01,weatherlink.com 1.10,2013-03-18 02:15:00,
2013-03-17 20:30:00,34.9,9.0,29.80,West,279,6.0,17.0,34,0.00,,,0.01,weatherlink.com 1.10,2013-03-18 02:30:00,
2013-03-17 20:45:00,34.4,9.0,29.80,NE,55,0.0,9.0,35,0.00,,,0.01,weatherlink.com 1.10,2013-03-18 02:45:00,
2013-03-17 21:00:00,33.3,10.0,29.82,NE,55,3.0,6.0,38,0.00,,,0.01,weatherlink.com 1.10,2013-03-18 03:00:00,
2013-03-17 21:15:00,33.9,10.0,29.82,SE,126,7.0,11.0,37,0.00,,,0.01,weatherlink.com 1.10,2013-03-18 03:15:00,
2013-03-17 21:30:00,34.0,11.0,29.83,WSW,248,9.0,17.0,39,0.00,,,0.01,weatherlink.com 1.10,2013-03-18 03:30:00,
2013-03-17 21:45:00,33.8,11.0,29.84,WSW,245,10.0,16.0,39,0.00,,,0.01,weatherlink.com 1.10,2013-03-18 03:45:00,
2013-03-17 22:00:00,34.1,10.0,29.84,West,272,8.0,24.0,37,0.00,,,0.01,weatherlink.com 1.10,2013-03-18 04:00:00,
2013-03-17 22:15:00,33.3,11.0,29.85,WNW,288,8.0,13.0,39,0.00,,,0.01,weatherlink.com 1.10,2013-03-18 04:15:00,
2013-03-17 22:30:00,33.2,10.0,29.86,WNW,282,5.0,14.0,38,0.00,,,0.01,weatherlink.com 1.10,2013-03-18 04:30:00,
2013-03-17 22:45:00,31.8,12.0,29.86,WNW,284,7.0,8.0,44,0.00,,,0.01,weatherlink.com 1.10,2013-03-18 04:45:00,
2013-03-17 23:00:00,30.7,13.0,29.87,NW,323,4.0,9.0,48,0.00,,,0.01,weatherlink.com 1.10,2013-03-18 05:00:00,
2013-03-17 23:15:00,30.3,13.0,29.87,NW,323,0.0,4.0,48,0.00,,,0.01,weatherlink.com 1.10,2013-03-18 05:15:00,
2013-03-17 23:30:00,30.4,12.0,29.88,NW,323,2.0,7.0,47,0.00,,,0.01,weatherlink.com 1.10,2013-03-18 05:30:00,
2013-03-17 23:45:00,30.3,11.0,29.88,NW,323,0.0,3.0,44,0.00,,,0.01,weatherlink.com 1.10,2013-03-18 05:45:00,